CST,Max TemperatureF,Mean TemperatureF,Min TemperatureF,Max Dew PointF,MeanDew PointF,Min DewpointF,Max Humidity, Mean Humidity, Min Humidity, Max Sea Level PressureIn, Mean Sea Level PressureIn, Min Sea Level PressureIn, Max VisibilityMiles, Mean VisibilityMiles, Min VisibilityMiles, Max Wind SpeedMPH, Mean Wind SpeedMPH, Max Gust SpeedMPH,PrecipitationIn, CloudCover, Events, WindDirDegrees
2012-11-1,82,63,44,42,35,27,70,43,15,30.05,29.96,29.89,10,10,10,18,10,23,0.00,0,,226
2012-11-2,85,68,50,54,38,17,93,51,9,29.94,29.86,29.77,10,10,7,20,9,24,0.00,1,,248
2012-11-3,67,56,44,41,37,30,70,53,36,30.13,30.04,29.88,10,10,10,20,9,24,0.00,4,,53
2012-11-4,74,56,38,42,38,32,82,57,31,30.17,30.10,30.00,10,10,10,14,7,18,0.00,1,,204
2012-11-5,73,60,46,35,31,29,61,40,19,30.16,30.09,30.03,10,10,10,21,9,25,0.00,2,,23
2012-11-6,78,59,39,34,30,27,59,38,16,30.14,30.10,30.04,10,10,10,15,7,18,0.00,1,,197
2012-11-7,80,62,44,45,36,30,58,40,21,30.13,30.02,29.90,10,10,10,22,10,25,0.00,0,,170
2012-11-8,86,68,50,48,40,26,83,48,12,29.99,29.85,29.76,10,10,9,25,14,33,0.00,4,,217
2012-11-9,84,71,58,56,46,33,80,49,17,29.95,29.78,29.69,10,10,7,28,17,33,0.01,2,Rain,215
2012-11-10,83,70,57,55,47,33,80,49,18,29.77,29.67,29.53,10,9,3,37,18,46,T,5,Rain,202
2012-11-11,58,45,32,32,11,-4,41,25,9,30.26,29.97,29.69,10,9,5,36,17,41,T,2,,295
2012-11-12,53,38,22,21,16,10,74,46,18,30.46,30.40,30.28,10,10,10,12,5,15,0.00,0,,134
2012-11-13,57,44,30,17,16,12,54,36,17,30.40,30.30,30.18,10,10,10,23,11,26,0.00,0,,171
2012-11-14,64,46,27,25,19,13,53,35,17,30.36,30.25,30.17,10,10,9,15,7,17,0.00,0,,211
2012-11-15,69,53,36,35,23,17,64,39,14,30.28,30.17,30.11,10,10,10,12,7,17,0.00,6,,319
2012-11-16,64,48,32,42,33,19,71,56,41,30.35,30.27,30.22,10,10,10,15,8,20,0.00,4,,105
2012-11-17,65,54,43,43,40,37,82,63,44,30.27,30.18,30.11,10,10,10,20,11,24,0.00,6,,168
2012-11-18,66,57,47,54,47,39,86,69,52,30.15,30.07,30.03,10,10,10,22,11,26,T,6,,195
2012-11-19,74,58,41,50,35,22,100,59,17,30.15,30.09,30.01,10,8,2,20,9,26,0.00,2,,279
2012-11-20,74,54,33,34,28,21,69,42,14,30.24,30.18,30.13,10,10,9,12,6,15,0.00,2,,72
2012-11-21,75,55,35,51,40,26,76,56,35,30.20,30.10,29.96,10,10,10,23,10,29,0.00,4,,198
2012-11-22,80,66,52,51,36,18,83,47,10,30.17,29.97,29.86,10,10,10,25,15,32,0.00,2,,264
2012-11-23,57,47,37,30,18,12,59,39,18,30.51,30.42,30.19,10,10,8,26,12,35,0.00,0,,61
2012-11-24,65,47,29,34,22,13,53,37,20,30.40,30.16,29.90,10,10,10,24,14,29,0.00,0,,217
2012-11-25,75,55,35,34,20,12,70,40,9,29.89,29.82,29.74,10,10,10,21,10,25,0.00,0,,258
2012-11-26,59,46,32,32,24,14,56,43,29,30.37,30.06,29.78,10,10,10,24,14,31,0.00,1,,358
2012-11-27,57,40,22,25,21,16,81,56,30,30.45,30.34,30.25,10,10,7,17,9,22,0.00,0,,259
2012-11-28,73,52,30,39,26,21,69,42,15,30.27,30.18,30.08,10,10,10,22,12,26,0.00,2,,223
2012-11-29,78,59,39,39,31,16,85,48,10,30.07,30.00,29.90,10,10,10,23,12,28,0.00,1,,242
2012-11-30,81,63,45,29,25,20,46,28,10,30.00,29.93,29.87,10,10,10,25,13,33,0.00,3,,250